createdAt,value
2023-01-22T00:06:38.000Z,-1.3
2023-01-22T00:21:14.000Z,-1.27
2023-01-22T00:35:51.000Z,-1.24
2023-01-22T00:50:28.000Z,-1.15
2023-01-22T01:05:04.000Z,-1.11
2023-01-22T01:19:33.000Z,-0.9
2023-01-22T01:34:05.000Z,-0.95
2023-01-22T01:48:41.000Z,-1
2023-01-22T02:03:18.000Z,-1
2023-01-22T02:17:53.000Z,-0.98
2023-01-22T02:32:30.000Z,-1.02
2023-01-22T02:47:04.000Z,-1.01
2023-01-22T03:01:32.000Z,-1.07
2023-01-22T03:16:07.000Z,-1.01
2023-01-22T03:30:44.000Z,-1.06
2023-01-22T03:45:16.000Z,-1
2023-01-22T03:59:45.000Z,-1
2023-01-22T04:14:22.000Z,-1.02
2023-01-22T04:28:57.000Z,-1.02
2023-01-22T04:43:35.000Z,-0.97
2023-01-22T04:58:08.000Z,-0.97
2023-01-22T05:12:45.000Z,-0.94
2023-01-22T05:27:21.000Z,-0.88
2023-01-22T05:41:57.000Z,-0.9
2023-01-22T05:56:33.000Z,-0.87
2023-01-22T06:11:10.000Z,-0.76
2023-01-22T06:25:48.000Z,-0.65
2023-01-22T06:40:26.000Z,-0.78
2023-01-22T06:55:02.000Z,0.41
2023-01-22T07:09:36.000Z,-0.71
2023-01-22T07:24:10.000Z,-0.72
2023-01-22T07:38:46.000Z,-0.72
2023-01-22T07:53:25.000Z,-0.06
2023-01-22T08:08:03.000Z,-0.52
2023-01-22T08:22:40.000Z,-0.44
2023-01-22T08:37:16.000Z,-0.39
2023-01-22T08:51:54.000Z,-0.3
2023-01-22T09:06:32.000Z,-0.3
2023-01-22T09:21:10.000Z,-0.18
2023-01-22T09:35:47.000Z,0
2023-01-22T09:50:25.000Z,0.06
2023-01-22T10:05:03.000Z,0.31
2023-01-22T10:19:39.000Z,0.51
2023-01-22T10:34:16.000Z,0.36
2023-01-22T10:48:55.000Z,0.48
2023-01-22T11:03:33.000Z,1.54
2023-01-22T11:18:12.000Z,1.22
2023-01-22T11:32:51.000Z,2.93
2023-01-22T11:47:30.000Z,1.71
2023-01-22T12:02:06.000Z,2.37
2023-01-22T12:16:44.000Z,1.67
2023-01-22T12:31:19.000Z,1.74
2023-01-22T12:45:55.000Z,2.09
2023-01-22T13:00:32.000Z,1.67
2023-01-22T13:15:02.000Z,1.65
2023-01-22T13:29:40.000Z,1.48
2023-01-22T13:44:15.000Z,1.34
2023-01-22T13:58:52.000Z,1.26
2023-01-22T14:13:30.000Z,1.28
2023-01-22T14:28:03.000Z,1.02
2023-01-22T14:42:39.000Z,0.91
2023-01-22T14:57:17.000Z,0.88
2023-01-22T15:11:48.000Z,0.73
2023-01-22T15:26:25.000Z,1.31
2023-01-22T15:41:03.000Z,0.7
2023-01-22T15:55:40.000Z,0.62
2023-01-22T16:10:15.000Z,0.58
2023-01-22T16:24:53.000Z,0.6
2023-01-22T16:39:30.000Z,0.62
2023-01-22T16:54:08.000Z,0.64
2023-01-22T17:08:44.000Z,0.55
2023-01-22T17:23:19.000Z,0.57
2023-01-22T17:37:57.000Z,0.6
2023-01-22T17:52:35.000Z,0.75
2023-01-22T18:07:12.000Z,0.51
2023-01-22T18:21:50.000Z,0.48
2023-01-22T18:36:27.000Z,0.46
2023-01-22T18:51:05.000Z,0.65
2023-01-22T19:05:43.000Z,0.66
2023-01-22T19:20:19.000Z,0.6
2023-01-22T19:34:53.000Z,0.43
2023-01-22T19:49:28.000Z,0.48
2023-01-22T20:04:05.000Z,0.45
2023-01-22T20:18:36.000Z,0.49
2023-01-22T20:33:09.000Z,0.44
2023-01-22T20:47:46.000Z,0.77
2023-01-22T21:02:21.000Z,0.51
2023-01-22T21:16:59.000Z,0.41
2023-01-22T21:31:37.000Z,0.32
2023-01-22T21:46:14.000Z,0.31
2023-01-22T22:00:52.000Z,0.44
2023-01-22T22:15:30.000Z,0.42
2023-01-22T22:30:06.000Z,0.47
2023-01-22T22:44:43.000Z,0.32
2023-01-22T22:59:19.000Z,0.4
2023-01-22T23:13:57.000Z,0.42
2023-01-22T23:28:33.000Z,0.41
2023-01-22T23:43:08.000Z,0.49
2023-01-22T23:57:44.000Z,0.52
